sensor_id;sensor_type;location;lat;lon;timestamp;P1;durP1;ratioP1;P2;durP2;ratioP2
21731;SDS011;11028;51.156;17.130;2023-09-30T00:03:29;15.07;;;9.13;;
21731;SDS011;11028;51.156;17.130;2023-09-30T00:10:48;12.20;;;9.13;;
21731;SDS011;11028;51.156;17.130;2023-09-30T00:18:07;15.23;;;9.85;;
21731;SDS011;11028;51.156;17.130;2023-09-30T00:25:28;14.48;;;9.65;;
21731;SDS011;11028;51.156;17.130;2023-09-30T00:32:46;15.23;;;10.15;;
21731;SDS011;11028;51.156;17.130;2023-09-30T00:40:06;15.07;;;9.57;;
21731;SDS011;11028;51.156;17.130;2023-09-30T00:54:48;16.63;;;9.45;;
21731;SDS011;11028;51.156;17.130;2023-09-30T01:02:08;17.02;;;9.98;;
21731;SDS011;11028;51.156;17.130;2023-09-30T01:09:28;18.85;;;10.45;;
21731;SDS011;11028;51.156;17.130;2023-09-30T01:16:47;15.88;;;8.90;;
21731;SDS011;11028;51.156;17.130;2023-09-30T01:24:08;19.35;;;9.50;;
21731;SDS011;11028;51.156;17.130;2023-09-30T01:31:26;13.45;;;8.90;;
21731;SDS011;11028;51.156;17.130;2023-09-30T01:38:45;17.23;;;10.18;;
21731;SDS011;11028;51.156;17.130;2023-09-30T01:46:05;16.70;;;9.45;;
21731;SDS011;11028;51.156;17.130;2023-09-30T01:53:24;13.90;;;8.93;;
21731;SDS011;11028;51.156;17.130;2023-09-30T02:00:43;14.85;;;8.35;;
21731;SDS011;11028;51.156;17.130;2023-09-30T02:08:04;14.73;;;8.52;;
21731;SDS011;11028;51.156;17.130;2023-09-30T02:15:23;10.98;;;8.20;;
21731;SDS011;11028;51.156;17.130;2023-09-30T02:22:42;15.20;;;8.15;;
21731;SDS011;11028;51.156;17.130;2023-09-30T02:30:04;13.23;;;7.80;;
21731;SDS011;11028;51.156;17.130;2023-09-30T02:37:23;9.38;;;7.10;;
21731;SDS011;11028;51.156;17.130;2023-09-30T02:44:42;10.20;;;6.88;;
21731;SDS011;11028;51.156;17.130;2023-09-30T02:52:02;11.10;;;6.68;;
21731;SDS011;11028;51.156;17.130;2023-09-30T02:59:22;11.40;;;6.38;;
21731;SDS011;11028;51.156;17.130;2023-09-30T03:06:40;9.98;;;6.78;;
21731;SDS011;11028;51.156;17.130;2023-09-30T03:14:03;8.02;;;6.00;;
21731;SDS011;11028;51.156;17.130;2023-09-30T03:21:24;9.15;;;6.35;;
21731;SDS011;11028;51.156;17.130;2023-09-30T03:28:43;8.23;;;5.38;;
21731;SDS011;11028;51.156;17.130;2023-09-30T03:36:04;9.02;;;6.13;;
21731;SDS011;11028;51.156;17.130;2023-09-30T03:43:27;7.93;;;5.20;;
21731;SDS011;11028;51.156;17.130;2023-09-30T03:50:46;8.32;;;5.82;;
21731;SDS011;11028;51.156;17.130;2023-09-30T03:58:06;10.48;;;5.45;;
21731;SDS011;11028;51.156;17.130;2023-09-30T04:05:25;11.55;;;5.45;;
21731;SDS011;11028;51.156;17.130;2023-09-30T04:12:46;9.90;;;6.00;;
21731;SDS011;11028;51.156;17.130;2023-09-30T04:20:07;9.90;;;5.65;;
21731;SDS011;11028;51.156;17.130;2023-09-30T04:27:28;8.23;;;5.38;;
21731;SDS011;11028;51.156;17.130;2023-09-30T04:34:47;10.77;;;5.88;;
21731;SDS011;11028;51.156;17.130;2023-09-30T04:42:07;9.15;;;5.72;;
21731;SDS011;11028;51.156;17.130;2023-09-30T04:49:28;10.70;;;5.67;;
21731;SDS011;11028;51.156;17.130;2023-09-30T04:56:47;8.98;;;5.82;;
21731;SDS011;11028;51.156;17.130;2023-09-30T05:04:09;10.23;;;5.80;;
21731;SDS011;11028;51.156;17.130;2023-09-30T05:11:27;9.90;;;5.95;;
21731;SDS011;11028;51.156;17.130;2023-09-30T05:18:46;10.50;;;5.70;;
21731;SDS011;11028;51.156;17.130;2023-09-30T05:26:06;12.77;;;6.30;;
21731;SDS011;11028;51.156;17.130;2023-09-30T05:33:25;12.80;;;5.90;;
21731;SDS011;11028;51.156;17.130;2023-09-30T05:40:45;9.63;;;6.13;;
21731;SDS011;11028;51.156;17.130;2023-09-30T05:48:05;15.32;;;5.53;;
21731;SDS011;11028;51.156;17.130;2023-09-30T05:55:24;9.38;;;5.93;;
21731;SDS011;11028;51.156;17.130;2023-09-30T06:02:43;11.40;;;5.28;;
21731;SDS011;11028;51.156;17.130;2023-09-30T06:10:04;11.93;;;5.32;;
21731;SDS011;11028;51.156;17.130;2023-09-30T06:17:26;8.20;;;4.88;;
21731;SDS011;11028;51.156;17.130;2023-09-30T06:24:45;7.45;;;3.75;;
21731;SDS011;11028;51.156;17.130;2023-09-30T06:32:05;5.80;;;3.00;;
21731;SDS011;11028;51.156;17.130;2023-09-30T06:39:24;5.40;;;2.25;;
21731;SDS011;11028;51.156;17.130;2023-09-30T06:46:42;5.40;;;1.90;;
21731;SDS011;11028;51.156;17.130;2023-09-30T06:54:02;5.75;;;1.63;;
21731;SDS011;11028;51.156;17.130;2023-09-30T07:01:23;5.35;;;1.88;;
21731;SDS011;11028;51.156;17.130;2023-09-30T07:08:42;3.60;;;1.63;;
21731;SDS011;11028;51.156;17.130;2023-09-30T07:16:02;39.70;;;19.05;;
21731;SDS011;11028;51.156;17.130;2023-09-30T07:23:21;8.20;;;2.95;;
21731;SDS011;11028;51.156;17.130;2023-09-30T07:30:40;8.30;;;3.60;;
21731;SDS011;11028;51.156;17.130;2023-09-30T07:38:01;6.63;;;4.22;;
21731;SDS011;11028;51.156;17.130;2023-09-30T07:45:19;6.60;;;4.47;;
21731;SDS011;11028;51.156;17.130;2023-09-30T07:52:38;7.15;;;4.22;;
21731;SDS011;11028;51.156;17.130;2023-09-30T08:00:00;20.67;;;8.70;;
21731;SDS011;11028;51.156;17.130;2023-09-30T08:07:24;4.97;;;2.38;;
21731;SDS011;11028;51.156;17.130;2023-09-30T08:14:43;10.52;;;5.47;;
21731;SDS011;11028;51.156;17.130;2023-09-30T08:22:04;7.78;;;2.40;;
21731;SDS011;11028;51.156;17.130;2023-09-30T08:29:23;12.07;;;2.90;;
21731;SDS011;11028;51.156;17.130;2023-09-30T08:36:43;6.68;;;2.55;;
21731;SDS011;11028;51.156;17.130;2023-09-30T08:44:03;4.65;;;2.60;;
21731;SDS011;11028;51.156;17.130;2023-09-30T08:51:24;7.53;;;2.67;;
21731;SDS011;11028;51.156;17.130;2023-09-30T08:58:44;6.45;;;2.90;;
21731;SDS011;11028;51.156;17.130;2023-09-30T09:06:04;5.10;;;2.53;;
21731;SDS011;11028;51.156;17.130;2023-09-30T09:13:23;7.43;;;2.78;;
21731;SDS011;11028;51.156;17.130;2023-09-30T09:20:42;5.25;;;2.38;;
21731;SDS011;11028;51.156;17.130;2023-09-30T09:28:02;9.68;;;2.33;;
21731;SDS011;11028;51.156;17.130;2023-09-30T09:35:21;9.55;;;3.42;;
21731;SDS011;11028;51.156;17.130;2023-09-30T09:42:42;13.20;;;2.22;;
21731;SDS011;11028;51.156;17.130;2023-09-30T09:50:02;8.90;;;2.20;;
21731;SDS011;11028;51.156;17.130;2023-09-30T09:57:22;10.45;;;2.10;;
21731;SDS011;11028;51.156;17.130;2023-09-30T10:04:43;6.20;;;1.95;;
21731;SDS011;11028;51.156;17.130;2023-09-30T10:12:04;8.55;;;2.00;;
21731;SDS011;11028;51.156;17.130;2023-09-30T10:19:25;6.45;;;1.63;;
21731;SDS011;11028;51.156;17.130;2023-09-30T10:26:46;6.40;;;2.00;;
21731;SDS011;11028;51.156;17.130;2023-09-30T10:41:49;5.60;;;2.45;;
21731;SDS011;11028;51.156;17.130;2023-09-30T10:49:15;5.72;;;2.00;;
21731;SDS011;11028;51.156;17.130;2023-09-30T10:56:39;5.28;;;2.05;;
21731;SDS011;11028;51.156;17.130;2023-09-30T11:04:01;5.40;;;1.90;;
21731;SDS011;11028;51.156;17.130;2023-09-30T11:11:35;9.38;;;2.67;;
21731;SDS011;11028;51.156;17.130;2023-09-30T11:19:00;6.47;;;2.45;;
21731;SDS011;11028;51.156;17.130;2023-09-30T11:26:28;7.75;;;2.65;;
21731;SDS011;11028;51.156;17.130;2023-09-30T11:33:53;7.18;;;2.80;;
21731;SDS011;11028;51.156;17.130;2023-09-30T11:41:16;10.80;;;2.85;;
21731;SDS011;11028;51.156;17.130;2023-09-30T11:48:35;8.50;;;2.55;;
21731;SDS011;11028;51.156;17.130;2023-09-30T11:55:54;6.68;;;2.25;;
21731;SDS011;11028;51.156;17.130;2023-09-30T12:03:14;8.55;;;2.35;;
21731;SDS011;11028;51.156;17.130;2023-09-30T12:10:33;8.32;;;2.53;;
21731;SDS011;11028;51.156;17.130;2023-09-30T12:17:51;8.73;;;2.70;;
21731;SDS011;11028;51.156;17.130;2023-09-30T12:25:11;8.95;;;2.97;;
21731;SDS011;11028;51.156;17.130;2023-09-30T12:32:29;6.30;;;2.10;;
21731;SDS011;11028;51.156;17.130;2023-09-30T12:39:48;9.90;;;2.47;;
21731;SDS011;11028;51.156;17.130;2023-09-30T12:47:08;7.70;;;1.92;;
21731;SDS011;11028;51.156;17.130;2023-09-30T12:54:26;8.15;;;2.22;;
21731;SDS011;11028;51.156;17.130;2023-09-30T13:01:45;5.28;;;1.85;;
21731;SDS011;11028;51.156;17.130;2023-09-30T13:09:06;8.23;;;2.38;;
21731;SDS011;11028;51.156;17.130;2023-09-30T13:16:26;9.82;;;2.35;;
21731;SDS011;11028;51.156;17.130;2023-09-30T13:23:44;5.95;;;2.10;;
21731;SDS011;11028;51.156;17.130;2023-09-30T13:31:04;5.53;;;1.90;;
21731;SDS011;11028;51.156;17.130;2023-09-30T13:38:23;6.10;;;2.25;;
21731;SDS011;11028;51.156;17.130;2023-09-30T13:45:42;7.68;;;2.30;;
21731;SDS011;11028;51.156;17.130;2023-09-30T13:53:04;9.13;;;1.98;;
21731;SDS011;11028;51.156;17.130;2023-09-30T14:00:22;7.88;;;2.22;;
21731;SDS011;11028;51.156;17.130;2023-09-30T14:07:41;14.98;;;4.07;;
21731;SDS011;11028;51.156;17.130;2023-09-30T14:15:01;6.68;;;2.25;;
21731;SDS011;11028;51.156;17.130;2023-09-30T14:22:22;6.70;;;2.13;;
21731;SDS011;11028;51.156;17.130;2023-09-30T14:29:41;8.93;;;2.03;;
21731;SDS011;11028;51.156;17.130;2023-09-30T14:37:01;13.25;;;5.93;;
21731;SDS011;11028;51.156;17.130;2023-09-30T14:44:20;6.88;;;2.13;;
21731;SDS011;11028;51.156;17.130;2023-09-30T14:51:40;10.75;;;3.08;;
21731;SDS011;11028;51.156;17.130;2023-09-30T14:59:00;10.70;;;2.30;;
21731;SDS011;11028;51.156;17.130;2023-09-30T15:06:19;7.40;;;2.08;;
21731;SDS011;11028;51.156;17.130;2023-09-30T15:13:41;9.00;;;2.40;;
21731;SDS011;11028;51.156;17.130;2023-09-30T15:21:02;7.90;;;2.25;;
21731;SDS011;11028;51.156;17.130;2023-09-30T15:28:22;13.40;;;2.58;;
21731;SDS011;11028;51.156;17.130;2023-09-30T15:35:40;9.02;;;2.05;;
21731;SDS011;11028;51.156;17.130;2023-09-30T15:43:00;10.85;;;4.32;;
21731;SDS011;11028;51.156;17.130;2023-09-30T15:50:18;6.85;;;2.42;;
21731;SDS011;11028;51.156;17.130;2023-09-30T15:57:37;6.40;;;2.03;;
21731;SDS011;11028;51.156;17.130;2023-09-30T16:05:00;6.72;;;2.03;;
21731;SDS011;11028;51.156;17.130;2023-09-30T16:12:19;10.50;;;2.05;;
21731;SDS011;11028;51.156;17.130;2023-09-30T16:19:38;8.55;;;2.47;;
21731;SDS011;11028;51.156;17.130;2023-09-30T16:26:58;9.32;;;2.33;;
21731;SDS011;11028;51.156;17.130;2023-09-30T16:34:17;6.35;;;2.38;;
21731;SDS011;11028;51.156;17.130;2023-09-30T16:41:35;10.07;;;2.55;;
21731;SDS011;11028;51.156;17.130;2023-09-30T16:48:56;9.18;;;2.70;;
21731;SDS011;11028;51.156;17.130;2023-09-30T16:56:14;8.27;;;2.45;;
21731;SDS011;11028;51.156;17.130;2023-09-30T17:03:33;7.13;;;2.45;;
21731;SDS011;11028;51.156;17.130;2023-09-30T17:10:52;9.70;;;2.53;;
21731;SDS011;11028;51.156;17.130;2023-09-30T17:18:12;6.13;;;2.45;;
21731;SDS011;11028;51.156;17.130;2023-09-30T17:25:31;11.60;;;3.65;;
21731;SDS011;11028;51.156;17.130;2023-09-30T17:32:51;10.15;;;3.30;;
21731;SDS011;11028;51.156;17.130;2023-09-30T17:40:10;12.63;;;4.28;;
21731;SDS011;11028;51.156;17.130;2023-09-30T17:47:29;7.90;;;4.30;;
21731;SDS011;11028;51.156;17.130;2023-09-30T17:54:52;9.95;;;4.70;;
21731;SDS011;11028;51.156;17.130;2023-09-30T18:02:11;11.98;;;4.40;;
21731;SDS011;11028;51.156;17.130;2023-09-30T18:09:30;12.32;;;3.88;;
21731;SDS011;11028;51.156;17.130;2023-09-30T18:16:50;9.38;;;3.55;;
21731;SDS011;11028;51.156;17.130;2023-09-30T18:24:09;8.02;;;3.15;;
21731;SDS011;11028;51.156;17.130;2023-09-30T18:31:28;13.10;;;3.40;;
21731;SDS011;11028;51.156;17.130;2023-09-30T18:38:48;18.27;;;6.75;;
21731;SDS011;11028;51.156;17.130;2023-09-30T18:46:07;15.68;;;4.90;;
21731;SDS011;11028;51.156;17.130;2023-09-30T18:53:27;12.10;;;4.88;;
21731;SDS011;11028;51.156;17.130;2023-09-30T19:00:47;10.70;;;4.93;;
21731;SDS011;11028;51.156;17.130;2023-09-30T19:08:06;13.38;;;5.03;;
21731;SDS011;11028;51.156;17.130;2023-09-30T19:15:26;18.30;;;4.70;;
21731;SDS011;11028;51.156;17.130;2023-09-30T19:22:46;15.38;;;4.57;;
21731;SDS011;11028;51.156;17.130;2023-09-30T19:30:05;12.50;;;4.82;;
21731;SDS011;11028;51.156;17.130;2023-09-30T19:37:25;15.93;;;8.43;;
21731;SDS011;11028;51.156;17.130;2023-09-30T19:44:45;15.30;;;7.32;;
21731;SDS011;11028;51.156;17.130;2023-09-30T19:52:05;14.43;;;6.75;;
21731;SDS011;11028;51.156;17.130;2023-09-30T19:59:26;14.18;;;6.15;;
21731;SDS011;11028;51.156;17.130;2023-09-30T20:06:46;15.82;;;6.40;;
21731;SDS011;11028;51.156;17.130;2023-09-30T20:14:10;16.55;;;6.57;;
21731;SDS011;11028;51.156;17.130;2023-09-30T20:21:28;21.52;;;7.97;;
21731;SDS011;11028;51.156;17.130;2023-09-30T20:28:49;21.27;;;8.43;;
21731;SDS011;11028;51.156;17.130;2023-09-30T20:36:08;18.70;;;9.27;;
21731;SDS011;11028;51.156;17.130;2023-09-30T20:43:27;28.23;;;9.82;;
21731;SDS011;11028;51.156;17.130;2023-09-30T20:50:48;17.92;;;6.78;;
21731;SDS011;11028;51.156;17.130;2023-09-30T20:58:08;15.20;;;5.38;;
21731;SDS011;11028;51.156;17.130;2023-09-30T21:05:27;15.15;;;5.80;;
21731;SDS011;11028;51.156;17.130;2023-09-30T21:12:47;11.43;;;5.53;;
21731;SDS011;11028;51.156;17.130;2023-09-30T21:20:06;13.70;;;5.50;;
21731;SDS011;11028;51.156;17.130;2023-09-30T21:27:25;13.20;;;5.75;;
21731;SDS011;11028;51.156;17.130;2023-09-30T21:34:45;11.73;;;4.68;;
21731;SDS011;11028;51.156;17.130;2023-09-30T21:42:04;12.38;;;4.78;;
21731;SDS011;11028;51.156;17.130;2023-09-30T21:49:24;15.48;;;5.30;;
21731;SDS011;11028;51.156;17.130;2023-09-30T21:56:44;15.60;;;5.30;;
21731;SDS011;11028;51.156;17.130;2023-09-30T22:04:06;11.05;;;4.85;;
21731;SDS011;11028;51.156;17.130;2023-09-30T22:11:25;13.63;;;5.38;;
21731;SDS011;11028;51.156;17.130;2023-09-30T22:18:47;19.73;;;4.85;;
21731;SDS011;11028;51.156;17.130;2023-09-30T22:26:05;13.98;;;5.57;;
21731;SDS011;11028;51.156;17.130;2023-09-30T22:33:24;15.13;;;4.82;;
21731;SDS011;11028;51.156;17.130;2023-09-30T22:40:45;13.02;;;5.35;;
21731;SDS011;11028;51.156;17.130;2023-09-30T22:48:04;13.35;;;5.30;;
21731;SDS011;11028;51.156;17.130;2023-09-30T22:55:23;14.38;;;5.45;;
21731;SDS011;11028;51.156;17.130;2023-09-30T23:02:44;16.70;;;5.40;;
21731;SDS011;11028;51.156;17.130;2023-09-30T23:10:04;15.43;;;5.90;;
21731;SDS011;11028;51.156;17.130;2023-09-30T23:17:23;13.02;;;4.88;;
21731;SDS011;11028;51.156;17.130;2023-09-30T23:24:43;11.95;;;5.32;;
21731;SDS011;11028;51.156;17.130;2023-09-30T23:32:04;16.10;;;5.55;;
21731;SDS011;11028;51.156;17.130;2023-09-30T23:39:22;12.00;;;4.88;;
21731;SDS011;11028;51.156;17.130;2023-09-30T23:46:44;16.95;;;5.05;;
21731;SDS011;11028;51.156;17.130;2023-09-30T23:54:03;12.43;;;5.32;;
